createdAt,value
2022-08-24T00:01:21.059Z,17.10
2022-08-24T00:02:43.998Z,17.00
2022-08-24T00:04:06.165Z,17.00
2022-08-24T00:05:28.277Z,17.00
2022-08-24T00:06:50.551Z,17.00
2022-08-24T00:08:13.412Z,16.90
2022-08-24T00:09:36.395Z,16.90
2022-08-24T00:11:01.695Z,16.90
2022-08-24T00:12:24.423Z,16.90
2022-08-24T00:13:47.050Z,16.90
2022-08-24T00:15:11.641Z,16.80
2022-08-24T00:16:35.421Z,16.80
2022-08-24T00:17:57.580Z,16.80
2022-08-24T00:19:20.061Z,16.80
2022-08-24T00:20:45.103Z,16.80
2022-08-24T00:22:07.411Z,16.70
2022-08-24T00:23:29.668Z,16.70
2022-08-24T00:24:51.784Z,16.70
2022-08-24T00:26:14.217Z,16.70
2022-08-24T00:27:37.108Z,16.70
2022-08-24T00:29:01.380Z,16.70
2022-08-24T00:30:26.802Z,16.70
2022-08-24T00:31:49.612Z,16.70
2022-08-24T00:33:11.720Z,16.70
2022-08-24T00:34:34.247Z,16.70
2022-08-24T00:35:56.611Z,16.70
2022-08-24T00:37:18.744Z,16.70
2022-08-24T00:38:40.998Z,16.70
2022-08-24T00:40:11.504Z,16.70
2022-08-24T00:41:34.817Z,16.70
2022-08-24T00:43:03.296Z,16.70
2022-08-24T00:44:26.266Z,16.70
2022-08-24T00:45:51.726Z,16.70
2022-08-24T00:47:31.660Z,16.70
2022-08-24T00:49:04.585Z,16.70
2022-08-24T00:50:34.982Z,16.70
2022-08-24T00:52:20.640Z,16.70
2022-08-24T00:53:49.026Z,16.60
2022-08-24T00:55:19.161Z,16.60
2022-08-24T00:56:51.946Z,16.50
2022-08-24T00:58:20.692Z,16.50
2022-08-24T00:59:48.177Z,16.50
2022-08-24T01:01:14.012Z,16.40
2022-08-24T01:02:38.645Z,16.40
2022-08-24T01:04:01.102Z,16.40
2022-08-24T01:05:23.310Z,16.40
2022-08-24T01:06:46.268Z,16.50
2022-08-24T01:08:10.998Z,16.50
2022-08-24T01:09:33.034Z,16.50
2022-08-24T01:11:18.064Z,16.50
2022-08-24T01:12:52.217Z,16.50
2022-08-24T01:14:24.157Z,16.60
2022-08-24T01:15:50.296Z,16.60
2022-08-24T01:17:35.034Z,16.60
2022-08-24T01:18:59.614Z,16.60
2022-08-24T01:20:23.508Z,16.60
2022-08-24T01:22:11.354Z,16.70
2022-08-24T01:23:40.278Z,16.70
2022-08-24T01:25:02.553Z,16.70
2022-08-24T01:26:50.071Z,16.70
2022-08-24T01:28:25.563Z,16.70
2022-08-24T01:29:51.503Z,16.70
2022-08-24T01:31:13.975Z,16.70
2022-08-24T01:32:36.047Z,16.70
2022-08-24T01:33:58.264Z,16.70
2022-08-24T01:35:20.871Z,16.70
2022-08-24T01:36:47.162Z,16.70
2022-08-24T01:38:12.281Z,16.80
2022-08-24T01:39:37.814Z,16.80
2022-08-24T01:41:02.518Z,16.80
2022-08-24T01:42:26.562Z,16.80
2022-08-24T01:43:48.583Z,16.80
2022-08-24T01:45:10.720Z,16.80
2022-08-24T01:46:33.024Z,16.80
2022-08-24T01:47:55.142Z,16.80
2022-08-24T01:49:17.377Z,16.80
2022-08-24T01:50:39.550Z,16.80
2022-08-24T01:52:03.310Z,16.80
2022-08-24T01:53:25.685Z,16.80
2022-08-24T01:54:49.450Z,16.80
2022-08-24T01:56:11.631Z,16.70
2022-08-24T01:57:33.712Z,16.80
2022-08-24T01:58:55.748Z,16.80
2022-08-24T02:00:18.391Z,16.80
2022-08-24T02:01:44.763Z,16.80
2022-08-24T02:03:07.716Z,16.80
2022-08-24T02:04:30.054Z,16.80
2022-08-24T02:05:52.102Z,16.80
2022-08-24T02:07:15.309Z,16.80
2022-08-24T02:08:37.453Z,16.80
2022-08-24T02:09:59.827Z,16.80
2022-08-24T02:11:22.783Z,16.70
2022-08-24T02:12:57.601Z,16.70
2022-08-24T02:14:20.653Z,16.80
2022-08-24T02:15:42.932Z,16.80
2022-08-24T02:17:07.853Z,16.70
2022-08-24T02:18:30.029Z,16.70
2022-08-24T02:19:52.059Z,16.80
2022-08-24T02:21:14.554Z,16.80
2022-08-24T02:22:36.603Z,16.70
2022-08-24T02:23:58.677Z,16.80
2022-08-24T02:25:21.085Z,16.80
2022-08-24T02:26:43.214Z,16.70
2022-08-24T02:28:05.416Z,16.80
2022-08-24T02:29:27.487Z,16.80
2022-08-24T02:30:49.797Z,16.80
2022-08-24T02:32:12.357Z,16.70
2022-08-24T02:33:36.045Z,16.70
2022-08-24T02:34:58.173Z,16.70
2022-08-24T02:36:25.678Z,16.70
2022-08-24T02:37:48.982Z,16.70
2022-08-24T02:39:11.108Z,16.70
2022-08-24T02:40:33.177Z,16.70
2022-08-24T02:41:55.277Z,16.70
2022-08-24T02:43:17.495Z,16.70
2022-08-24T02:44:39.577Z,16.60
2022-08-24T02:46:01.663Z,16.70
2022-08-24T02:47:23.749Z,16.70
2022-08-24T02:49:11.113Z,16.70
2022-08-24T02:50:37.679Z,16.60
2022-08-24T02:51:59.772Z,16.60
2022-08-24T02:53:22.847Z,16.60
2022-08-24T02:54:45.049Z,16.60
2022-08-24T02:56:07.364Z,16.50
2022-08-24T02:57:29.526Z,16.50
2022-08-24T02:58:54.293Z,16.50
2022-08-24T03:00:19.561Z,16.50
2022-08-24T03:01:41.718Z,16.50
2022-08-24T03:03:04.216Z,16.50
2022-08-24T03:04:26.650Z,16.50
2022-08-24T03:05:48.831Z,16.40
2022-08-24T03:07:11.139Z,16.50
2022-08-24T03:08:34.700Z,16.50
2022-08-24T03:09:57.821Z,16.50
2022-08-24T03:11:19.901Z,16.40
2022-08-24T03:12:42.133Z,16.50
2022-08-24T03:14:04.367Z,16.40
2022-08-24T03:15:27.100Z,16.40
2022-08-24T03:16:49.297Z,16.40
2022-08-24T03:18:11.623Z,16.40
2022-08-24T03:19:37.220Z,16.40
2022-08-24T03:21:01.178Z,16.40
2022-08-24T03:22:24.370Z,16.30
2022-08-24T03:23:46.543Z,16.30
2022-08-24T03:25:09.836Z,16.30
2022-08-24T03:26:32.018Z,16.30
2022-08-24T03:27:54.487Z,16.30
2022-08-24T03:29:16.736Z,16.30
2022-08-24T03:30:42.060Z,16.30
2022-08-24T03:32:08.892Z,16.30
2022-08-24T03:33:31.017Z,16.30
2022-08-24T03:34:54.327Z,16.30
2022-08-24T03:36:16.464Z,16.30
2022-08-24T03:37:38.693Z,16.30
2022-08-24T03:39:00.778Z,16.20
2022-08-24T03:40:24.653Z,16.20
2022-08-24T03:41:47.088Z,16.20
2022-08-24T03:43:09.421Z,16.20
2022-08-24T03:44:31.640Z,16.20
2022-08-24T03:45:53.769Z,16.20
2022-08-24T03:47:15.945Z,16.20
2022-08-24T03:48:40.313Z,16.20
2022-08-24T03:50:02.680Z,16.20
2022-08-24T03:51:27.889Z,16.20
2022-08-24T03:52:50.159Z,16.20
2022-08-24T03:54:13.548Z,16.20
2022-08-24T03:55:35.569Z,16.20
2022-08-24T03:56:58.811Z,16.20
2022-08-24T03:58:20.892Z,16.20
2022-08-24T03:59:46.498Z,16.20
2022-08-24T04:01:09.977Z,16.20
2022-08-24T04:02:33.143Z,16.20
2022-08-24T04:03:55.396Z,16.20
2022-08-24T04:05:17.605Z,16.20
2022-08-24T04:06:44.236Z,16.20
2022-08-24T04:08:07.282Z,16.20
2022-08-24T04:09:29.444Z,16.20
2022-08-24T04:10:51.491Z,16.20
2022-08-24T04:12:13.577Z,16.20
2022-08-24T04:13:35.755Z,16.30
2022-08-24T04:14:57.873Z,16.30
2022-08-24T04:16:21.431Z,16.30
2022-08-24T04:17:43.584Z,16.30
2022-08-24T04:19:05.705Z,16.40
2022-08-24T04:20:28.682Z,16.40
2022-08-24T04:21:51.203Z,16.30
2022-08-24T04:23:15.158Z,16.40
2022-08-24T04:24:37.422Z,16.40
2022-08-24T04:26:04.588Z,16.40
2022-08-24T04:27:26.665Z,16.50
2022-08-24T04:28:49.220Z,16.40
2022-08-24T04:30:14.053Z,16.50
2022-08-24T04:31:38.363Z,16.50
2022-08-24T04:33:00.542Z,16.50
2022-08-24T04:34:22.676Z,16.50
2022-08-24T04:35:48.055Z,16.50
2022-08-24T04:37:11.513Z,16.50
2022-08-24T04:38:33.929Z,16.50
2022-08-24T04:39:56.106Z,16.60
2022-08-24T04:41:30.854Z,16.70
2022-08-24T04:42:53.720Z,16.70
2022-08-24T04:44:15.779Z,16.70
2022-08-24T04:45:44.632Z,16.70
2022-08-24T04:47:07.431Z,16.80
2022-08-24T04:48:29.586Z,16.90
2022-08-24T04:49:51.860Z,16.90
2022-08-24T04:51:15.972Z,16.90
2022-08-24T04:52:38.069Z,16.90
2022-08-24T04:54:00.354Z,17.00
2022-08-24T04:55:22.434Z,17.00
2022-08-24T04:56:44.510Z,17.10
2022-08-24T04:58:06.838Z,17.10
2022-08-24T04:59:29.019Z,17.20
2022-08-24T05:00:51.200Z,17.20
2022-08-24T05:02:13.417Z,17.20
2022-08-24T05:03:36.346Z,17.30
2022-08-24T05:04:58.708Z,17.30
2022-08-24T05:06:23.845Z,17.40
2022-08-24T05:07:45.890Z,17.50
2022-08-24T05:09:08.199Z,17.50
2022-08-24T05:10:33.804Z,17.50
2022-08-24T05:11:57.347Z,17.50
2022-08-24T05:13:19.787Z,17.60
2022-08-24T05:14:42.226Z,17.60
2022-08-24T05:16:17.851Z,17.60
2022-08-24T05:17:41.420Z,17.70
2022-08-24T05:19:07.141Z,17.70
2022-08-24T05:20:29.562Z,17.80
2022-08-24T05:21:51.643Z,17.80
2022-08-24T05:23:14.085Z,18.00
2022-08-24T05:24:36.095Z,18.00
2022-08-24T05:26:10.244Z,18.20
2022-08-24T05:27:34.003Z,18.30
2022-08-24T05:28:58.315Z,18.30
2022-08-24T05:30:20.749Z,18.30
2022-08-24T05:31:45.536Z,18.40
2022-08-24T05:33:07.843Z,18.60
2022-08-24T05:34:29.947Z,18.80
2022-08-24T05:35:52.036Z,19.00
2022-08-24T05:37:14.320Z,19.00
2022-08-24T05:38:36.411Z,19.10
2022-08-24T05:39:58.517Z,19.20
2022-08-24T05:41:21.233Z,19.30
2022-08-24T05:42:43.768Z,19.40
2022-08-24T05:44:06.542Z,19.40
2022-08-24T05:45:30.246Z,19.50
2022-08-24T05:46:53.341Z,19.60
2022-08-24T05:48:15.491Z,19.70
2022-08-24T05:49:41.359Z,19.80
2022-08-24T05:51:05.057Z,19.90
2022-08-24T05:52:28.187Z,20.10
2022-08-24T05:53:50.516Z,20.30
2022-08-24T05:55:12.663Z,20.40
2022-08-24T05:56:35.467Z,20.60
2022-08-24T05:57:57.528Z,20.80
2022-08-24T05:59:22.519Z,20.90
2022-08-24T06:00:45.852Z,21.10
2022-08-24T06:02:08.435Z,21.20
2022-08-24T06:03:30.584Z,21.40
2022-08-24T06:04:52.897Z,21.50
2022-08-24T06:06:16.409Z,21.60
2022-08-24T06:07:38.534Z,21.70
2022-08-24T06:09:01.595Z,21.80
2022-08-24T06:10:38.932Z,21.90
2022-08-24T06:12:01.026Z,22.00
2022-08-24T06:13:23.560Z,22.10
2022-08-24T06:14:47.819Z,22.20
2022-08-24T06:16:27.677Z,22.20
2022-08-24T06:17:50.350Z,22.20
2022-08-24T06:19:14.911Z,22.10
2022-08-24T06:20:42.442Z,22.00
2022-08-24T06:22:05.110Z,22.00
2022-08-24T06:23:27.251Z,21.90
2022-08-24T06:25:07.739Z,21.80
2022-08-24T06:26:49.891Z,21.80
2022-08-24T06:28:12.517Z,21.80
2022-08-24T06:29:34.810Z,21.80
2022-08-24T06:31:04.854Z,21.80
2022-08-24T06:32:27.350Z,21.80
2022-08-24T06:33:49.574Z,21.80
2022-08-24T06:35:11.628Z,21.80
2022-08-24T06:36:34.011Z,21.80
2022-08-24T06:37:56.517Z,21.90
2022-08-24T06:39:18.987Z,22.00
2022-08-24T06:40:42.807Z,22.10
2022-08-24T06:42:05.313Z,22.20
2022-08-24T06:43:27.462Z,22.30
2022-08-24T06:44:49.584Z,22.30
2022-08-24T06:46:12.376Z,22.30
2022-08-24T06:47:34.570Z,22.30
2022-08-24T06:48:57.099Z,22.20
2022-08-24T06:50:19.596Z,22.10
2022-08-24T06:51:50.592Z,22.10
2022-08-24T06:53:14.937Z,22.20
2022-08-24T06:54:37.323Z,22.20
2022-08-24T06:55:59.467Z,22.30
2022-08-24T06:57:21.981Z,22.30
2022-08-24T06:58:44.973Z,22.20
2022-08-24T07:00:09.395Z,22.20
2022-08-24T07:01:31.870Z,22.30
2022-08-24T07:02:53.986Z,22.20
2022-08-24T07:04:16.283Z,22.30
2022-08-24T07:05:39.688Z,22.40
2022-08-24T07:07:01.768Z,22.40
2022-08-24T07:08:24.706Z,22.50
2022-08-24T07:09:46.926Z,22.60
2022-08-24T07:11:10.480Z,22.60
2022-08-24T07:12:32.508Z,22.70
2022-08-24T07:13:54.628Z,22.80
2022-08-24T07:15:16.818Z,22.90
2022-08-24T07:16:38.878Z,22.90
2022-08-24T07:18:01.238Z,23.00
2022-08-24T07:19:23.401Z,23.10
2022-08-24T07:20:46.959Z,23.20
2022-08-24T07:23:18.880Z,23.40
2022-08-24T07:24:41.255Z,23.50
2022-08-24T07:26:20.920Z,23.60
2022-08-24T07:27:43.872Z,23.50
2022-08-24T07:29:25.021Z,23.60
2022-08-24T07:30:52.949Z,23.60
2022-08-24T07:32:15.105Z,23.60
2022-08-24T07:33:37.219Z,23.50
2022-08-24T07:35:00.024Z,23.50
2022-08-24T07:36:22.931Z,23.50
2022-08-24T07:37:45.216Z,23.50
2022-08-24T07:39:07.914Z,23.40
2022-08-24T07:40:30.558Z,23.40
2022-08-24T07:43:34.899Z,23.40
2022-08-24T07:45:00.442Z,23.40
2022-08-24T07:46:23.148Z,23.40
2022-08-24T07:47:54.745Z,23.40
2022-08-24T07:49:36.094Z,23.40
2022-08-24T07:51:10.597Z,23.40
2022-08-24T07:52:32.754Z,23.50
2022-08-24T07:53:54.866Z,23.60
2022-08-24T07:55:17.049Z,23.60
2022-08-24T07:56:39.401Z,23.60
2022-08-24T07:58:02.151Z,23.60
2022-08-24T07:59:24.191Z,23.70
2022-08-24T08:00:47.958Z,23.70
2022-08-24T08:02:11.686Z,23.70
2022-08-24T08:03:34.199Z,23.70
2022-08-24T08:04:56.551Z,23.50
2022-08-24T08:06:19.320Z,23.40
2022-08-24T08:07:41.585Z,23.40
2022-08-24T08:09:05.370Z,23.40
2022-08-24T08:10:30.750Z,23.40
2022-08-24T08:11:52.876Z,23.40
2022-08-24T08:13:15.597Z,23.40
2022-08-24T08:14:38.870Z,23.20
2022-08-24T08:16:05.005Z,23.20
2022-08-24T08:17:28.692Z,23.00
2022-08-24T08:19:00.819Z,22.90
2022-08-24T08:20:31.224Z,22.80
2022-08-24T08:22:12.213Z,22.80
2022-08-24T08:23:52.781Z,22.80
2022-08-24T08:25:14.978Z,22.80
2022-08-24T08:26:37.637Z,22.90
2022-08-24T08:28:04.376Z,22.90
2022-08-24T08:29:36.335Z,22.90
2022-08-24T08:30:59.650Z,22.90
2022-08-24T08:32:23.877Z,23.00
2022-08-24T08:33:46.097Z,23.10
2022-08-24T08:35:08.599Z,23.20
2022-08-24T08:36:31.623Z,23.40
2022-08-24T08:37:53.828Z,23.60
2022-08-24T08:39:17.957Z,23.60
2022-08-24T08:41:04.365Z,23.70
2022-08-24T08:42:29.229Z,23.80
2022-08-24T08:44:03.074Z,23.90
2022-08-24T08:45:40.420Z,24.00
2022-08-24T08:47:05.434Z,24.00
2022-08-24T08:49:02.071Z,24.00
2022-08-24T08:50:42.495Z,24.10
2022-08-24T08:52:24.753Z,24.20
2022-08-24T08:53:52.970Z,24.30
2022-08-24T08:55:23.883Z,24.40
2022-08-24T08:57:26.515Z,24.50
2022-08-24T08:59:04.250Z,24.60
2022-08-24T09:00:39.561Z,24.70
2022-08-24T09:02:30.112Z,24.70
2022-08-24T09:04:12.741Z,24.80
2022-08-24T09:05:58.906Z,24.90
2022-08-24T09:07:33.816Z,24.90
2022-08-24T09:09:06.515Z,25.00
2022-08-24T09:10:51.821Z,25.10
2022-08-24T09:12:43.611Z,25.10
2022-08-24T09:14:34.739Z,24.90
2022-08-24T09:16:12.243Z,24.70
2022-08-24T09:17:46.187Z,24.60
2022-08-24T09:19:31.958Z,24.60
2022-08-24T09:21:15.671Z,24.60
2022-08-24T09:22:49.643Z,24.60
2022-08-24T09:24:17.633Z,24.40
2022-08-24T09:25:57.988Z,24.40
2022-08-24T09:27:42.239Z,24.40
2022-08-24T09:29:16.847Z,24.70
2022-08-24T09:30:58.530Z,24.80
2022-08-24T09:33:10.441Z,24.80
2022-08-24T09:34:53.755Z,25.00
2022-08-24T09:36:52.020Z,25.00
2022-08-24T09:38:41.818Z,24.90
2022-08-24T09:40:33.601Z,24.90
2022-08-24T09:42:21.841Z,24.70
2022-08-24T09:44:03.527Z,24.70
2022-08-24T09:45:26.543Z,24.90
2022-08-24T09:47:26.205Z,25.10
2022-08-24T09:49:26.816Z,25.20
2022-08-24T09:51:07.821Z,25.20
2022-08-24T09:52:47.821Z,25.20
2022-08-24T09:54:49.539Z,25.30
2022-08-24T09:56:38.607Z,25.20
2022-08-24T09:58:23.603Z,25.20
2022-08-24T10:00:09.293Z,25.20
2022-08-24T10:01:49.486Z,25.10
2022-08-24T10:03:28.905Z,25.00
2022-08-24T10:05:36.988Z,25.00
2022-08-24T10:07:42.039Z,25.00
2022-08-24T10:09:28.510Z,24.90
2022-08-24T10:11:05.662Z,24.80
2022-08-24T10:12:41.362Z,24.80
2022-08-24T10:14:40.279Z,24.80
2022-08-24T10:16:23.046Z,24.90
2022-08-24T10:17:50.441Z,24.90
2022-08-24T10:19:40.760Z,24.80
2022-08-24T10:21:31.946Z,24.70
2022-08-24T10:23:31.168Z,24.60
2022-08-24T10:25:18.266Z,24.60
2022-08-24T10:27:03.519Z,24.70
2022-08-24T10:28:43.577Z,24.70
2022-08-24T10:30:36.140Z,24.70
2022-08-24T10:32:04.710Z,24.90
2022-08-24T10:33:57.673Z,25.00
2022-08-24T10:35:22.667Z,24.90
2022-08-24T10:36:59.365Z,24.90
2022-08-24T10:39:11.095Z,25.00
2022-08-24T10:40:44.477Z,25.20
2022-08-24T10:42:58.759Z,25.20
2022-08-24T10:44:49.773Z,25.20
2022-08-24T10:46:29.845Z,25.20
2022-08-24T10:48:03.842Z,25.10
2022-08-24T10:49:35.198Z,25.10
2022-08-24T10:51:26.258Z,25.10
2022-08-24T10:53:17.534Z,25.10
2022-08-24T10:54:40.004Z,25.00
2022-08-24T10:56:05.574Z,25.00
2022-08-24T10:57:42.378Z,25.00
2022-08-24T10:59:07.535Z,25.20
2022-08-24T11:00:30.521Z,25.40
2022-08-24T11:02:01.138Z,25.40
2022-08-24T11:03:27.973Z,25.40
2022-08-24T11:04:57.206Z,25.20
2022-08-24T11:06:21.916Z,25.10
2022-08-24T11:08:02.765Z,25.00
2022-08-24T11:09:47.980Z,25.00
2022-08-24T11:11:13.481Z,25.10
2022-08-24T11:12:43.893Z,25.10
2022-08-24T11:14:25.047Z,25.20
2022-08-24T11:15:51.630Z,25.30
2022-08-24T11:17:20.416Z,25.30
2022-08-24T11:18:56.930Z,25.40
2022-08-24T11:20:33.727Z,25.50
2022-08-24T11:22:02.068Z,25.50
2022-08-24T11:23:34.555Z,25.50
2022-08-24T11:25:19.360Z,25.40
2022-08-24T11:26:53.566Z,25.20
2022-08-24T11:28:39.013Z,25.20
2022-08-24T11:30:18.145Z,25.20
2022-08-24T11:31:42.450Z,25.30
2022-08-24T11:33:06.728Z,25.30
2022-08-24T11:34:39.715Z,25.30
2022-08-24T11:36:02.910Z,25.20
2022-08-24T11:37:33.040Z,25.30
2022-08-24T11:39:32.335Z,25.30
2022-08-24T11:41:07.866Z,25.20
2022-08-24T11:43:08.914Z,25.10
2022-08-24T11:44:33.686Z,25.10
2022-08-24T11:46:06.498Z,25.10
2022-08-24T11:47:47.246Z,25.10
2022-08-24T11:49:15.063Z,25.10
2022-08-24T11:50:52.202Z,25.20
2022-08-24T11:52:17.915Z,25.30
2022-08-24T11:53:57.614Z,25.50
2022-08-24T11:55:51.977Z,25.40
2022-08-24T11:57:30.206Z,25.40
2022-08-24T11:59:00.792Z,25.30
2022-08-24T12:00:26.976Z,25.30
2022-08-24T12:01:54.705Z,25.40
2022-08-24T12:03:51.892Z,25.30
2022-08-24T12:05:32.823Z,25.20
2022-08-24T12:07:10.987Z,25.20
2022-08-24T12:08:48.710Z,25.20
2022-08-24T12:10:48.629Z,25.20
2022-08-24T12:12:36.352Z,25.30
2022-08-24T12:14:07.925Z,25.30
2022-08-24T12:15:43.094Z,25.20
2022-08-24T12:17:32.917Z,25.20
2022-08-24T12:19:11.558Z,25.10
2022-08-24T12:20:39.098Z,25.20
2022-08-24T12:22:04.888Z,25.20
2022-08-24T12:23:42.104Z,25.10
2022-08-24T12:25:25.540Z,25.10
2022-08-24T12:26:52.316Z,25.00
2022-08-24T12:28:21.137Z,25.00
2022-08-24T12:29:43.199Z,24.90
2022-08-24T12:31:17.546Z,24.90
2022-08-24T12:32:45.476Z,24.90
2022-08-24T12:34:18.285Z,25.00
2022-08-24T12:35:40.302Z,25.00
2022-08-24T12:37:15.382Z,25.00
2022-08-24T12:38:43.991Z,25.10
2022-08-24T12:40:35.198Z,25.10
2022-08-24T12:42:08.921Z,25.20
2022-08-24T12:43:48.848Z,25.10
2022-08-24T12:45:17.221Z,25.10
2022-08-24T12:46:39.719Z,25.10
2022-08-24T12:48:11.517Z,25.10
2022-08-24T12:49:43.021Z,25.00
2022-08-24T12:51:18.532Z,25.00
2022-08-24T12:52:46.372Z,24.90
2022-08-24T12:54:26.994Z,24.90
2022-08-24T12:56:08.136Z,24.80
2022-08-24T12:57:54.925Z,24.80
2022-08-24T12:59:28.457Z,24.80
2022-08-24T13:00:51.350Z,24.80
2022-08-24T13:02:19.818Z,24.70
2022-08-24T13:03:44.066Z,24.70
2022-08-24T13:05:15.294Z,24.90
2022-08-24T13:06:45.234Z,25.00
2022-08-24T13:08:15.571Z,25.00
2022-08-24T13:09:46.598Z,25.00
2022-08-24T13:11:15.150Z,24.90
2022-08-24T13:12:43.480Z,24.90
2022-08-24T13:14:31.202Z,24.90
2022-08-24T13:15:56.857Z,25.00
2022-08-24T13:17:19.407Z,25.00
2022-08-24T13:19:09.892Z,25.10
2022-08-24T13:20:34.766Z,25.20
2022-08-24T13:22:13.983Z,25.20
2022-08-24T13:23:37.008Z,25.30
2022-08-24T13:25:01.713Z,25.30
2022-08-24T13:26:28.662Z,25.30
2022-08-24T13:28:05.530Z,25.30
2022-08-24T13:29:33.303Z,25.20
2022-08-24T13:31:05.243Z,25.10
2022-08-24T13:32:32.262Z,25.10
2022-08-24T13:34:05.869Z,25.00
2022-08-24T13:35:35.429Z,24.90
2022-08-24T13:37:11.583Z,24.80
2022-08-24T13:38:38.835Z,24.80
2022-08-24T13:40:10.033Z,24.90
2022-08-24T13:42:00.601Z,24.90
2022-08-24T13:43:38.318Z,24.80
2022-08-24T13:45:03.314Z,24.90
2022-08-24T13:46:52.259Z,24.80
2022-08-24T13:48:29.119Z,24.80
2022-08-24T13:50:08.095Z,24.80
2022-08-24T13:51:50.626Z,24.80
2022-08-24T13:53:50.589Z,24.80
2022-08-24T13:55:28.324Z,24.90
2022-08-24T13:57:02.773Z,24.90
2022-08-24T13:58:45.292Z,24.90
2022-08-24T14:00:33.074Z,24.80
2022-08-24T14:02:14.463Z,24.70
2022-08-24T14:03:54.086Z,24.70
2022-08-24T14:05:43.728Z,24.60
2022-08-24T14:07:21.223Z,24.60
2022-08-24T14:08:44.322Z,24.60
2022-08-24T14:10:28.091Z,24.50
2022-08-24T14:12:10.806Z,24.40
2022-08-24T14:13:57.029Z,24.50
2022-08-24T14:15:48.542Z,24.50
2022-08-24T14:17:35.805Z,24.50
2022-08-24T14:19:25.009Z,24.60
2022-08-24T14:21:18.081Z,24.60
2022-08-24T14:23:14.039Z,24.60
2022-08-24T14:24:58.956Z,24.70
2022-08-24T14:26:36.960Z,24.70
2022-08-24T14:27:59.047Z,24.70
2022-08-24T14:29:43.195Z,24.70
2022-08-24T14:31:14.627Z,24.70
2022-08-24T14:32:43.349Z,24.70
2022-08-24T14:34:25.013Z,24.80
2022-08-24T14:35:47.123Z,24.80
2022-08-24T14:37:16.324Z,24.70
2022-08-24T14:38:44.497Z,24.70
2022-08-24T14:40:37.483Z,24.70
2022-08-24T14:42:48.896Z,24.70
2022-08-24T14:44:33.671Z,24.60
2022-08-24T14:46:33.826Z,24.60
2022-08-24T14:48:02.358Z,24.50
2022-08-24T14:49:36.646Z,24.40
2022-08-24T14:51:20.231Z,24.40
2022-08-24T14:53:19.500Z,24.40
2022-08-24T14:54:53.665Z,24.30
2022-08-24T14:56:42.989Z,24.40
2022-08-24T14:58:21.022Z,24.30
2022-08-24T15:00:08.639Z,24.30
2022-08-24T15:01:41.723Z,24.30
2022-08-24T15:03:24.181Z,24.30
2022-08-24T15:04:52.118Z,24.20
2022-08-24T15:06:41.924Z,24.20
2022-08-24T15:08:29.624Z,24.20
2022-08-24T15:09:53.877Z,24.20
2022-08-24T15:11:21.372Z,24.20
2022-08-24T15:13:02.858Z,24.10
2022-08-24T15:15:02.020Z,24.20
2022-08-24T15:16:38.851Z,24.20
2022-08-24T15:18:09.684Z,24.20
2022-08-24T15:20:02.674Z,24.20
2022-08-24T15:21:58.189Z,24.20
2022-08-24T15:23:49.481Z,24.30
2022-08-24T15:25:23.273Z,24.30
2022-08-24T15:27:10.333Z,24.40
2022-08-24T15:28:34.051Z,24.50
2022-08-24T15:30:02.622Z,24.60
2022-08-24T15:31:28.751Z,24.50
2022-08-24T15:33:01.076Z,24.40
2022-08-24T15:34:53.146Z,24.40
2022-08-24T15:36:17.496Z,24.40
2022-08-24T15:37:42.187Z,24.40
2022-08-24T15:39:05.737Z,24.40
2022-08-24T15:40:31.019Z,24.40
2022-08-24T15:41:53.970Z,24.50
2022-08-24T15:43:17.402Z,24.50
2022-08-24T15:44:41.897Z,24.60
2022-08-24T15:46:04.993Z,24.60
2022-08-24T15:47:34.712Z,24.60
2022-08-24T15:49:03.028Z,24.60
2022-08-24T15:50:41.302Z,24.50
2022-08-24T15:52:27.910Z,24.60
2022-08-24T15:53:50.062Z,24.60
2022-08-24T15:55:28.885Z,24.60
2022-08-24T15:56:54.946Z,24.60
2022-08-24T15:58:37.433Z,24.50
2022-08-24T16:00:40.418Z,24.40
2022-08-24T16:02:25.902Z,24.50
2022-08-24T16:03:52.630Z,24.50
2022-08-24T16:05:24.218Z,24.40
2022-08-24T16:06:48.205Z,24.20
2022-08-24T16:08:13.255Z,24.10
2022-08-24T16:09:37.711Z,24.00
2022-08-24T16:11:19.570Z,24.00
2022-08-24T16:12:41.775Z,24.00
2022-08-24T16:14:28.382Z,24.00
2022-08-24T16:16:00.013Z,24.00
2022-08-24T16:17:51.478Z,23.90
2022-08-24T16:19:35.444Z,23.90
2022-08-24T16:20:59.912Z,23.80
2022-08-24T16:22:33.108Z,23.80
2022-08-24T16:24:23.004Z,23.70
2022-08-24T16:25:50.531Z,23.60
2022-08-24T16:27:16.835Z,23.50
2022-08-24T16:28:39.967Z,23.50
2022-08-24T16:30:22.943Z,23.50
2022-08-24T16:31:49.524Z,23.40
2022-08-24T16:33:31.904Z,23.40
2022-08-24T16:35:16.035Z,23.30
2022-08-24T16:36:38.067Z,23.20
2022-08-24T16:38:00.772Z,23.20
2022-08-24T16:39:23.146Z,23.20
2022-08-24T16:40:45.321Z,23.10
2022-08-24T16:42:27.154Z,23.10
2022-08-24T16:43:49.837Z,23.10
2022-08-24T16:45:17.220Z,23.00
2022-08-24T16:46:40.242Z,23.00
2022-08-24T16:48:02.654Z,22.90
2022-08-24T16:49:25.348Z,22.90
2022-08-24T16:50:50.976Z,22.80
2022-08-24T16:52:14.031Z,22.80
2022-08-24T16:53:36.100Z,22.70
2022-08-24T16:55:00.402Z,22.70
2022-08-24T16:56:22.623Z,22.70
2022-08-24T16:57:45.950Z,22.70
2022-08-24T16:59:20.086Z,22.60
2022-08-24T17:00:42.455Z,22.60
2022-08-24T17:02:04.652Z,22.60
2022-08-24T17:03:28.721Z,22.50
2022-08-24T17:04:50.918Z,22.50
2022-08-24T17:06:13.279Z,22.50
2022-08-24T17:07:35.665Z,22.50
2022-08-24T17:08:58.691Z,22.60
2022-08-24T17:10:23.609Z,22.50
2022-08-24T17:11:47.067Z,22.50
2022-08-24T17:13:09.362Z,22.50
2022-08-24T17:14:31.586Z,22.50
2022-08-24T17:15:53.975Z,22.50
2022-08-24T17:17:21.376Z,22.50
2022-08-24T17:18:43.947Z,22.50
2022-08-24T17:20:09.692Z,22.50
2022-08-24T17:21:31.803Z,22.50
2022-08-24T17:22:54.276Z,22.50
2022-08-24T17:24:20.686Z,22.50
2022-08-24T17:25:43.487Z,22.50
2022-08-24T17:27:05.676Z,23.10
2022-08-24T17:28:27.749Z,22.70
2022-08-24T17:29:50.175Z,22.80
2022-08-24T17:31:13.496Z,22.80
2022-08-24T17:32:36.369Z,22.80
2022-08-24T17:33:59.223Z,22.90
2022-08-24T17:35:22.114Z,22.90
2022-08-24T17:36:45.213Z,22.90
2022-08-24T17:38:07.449Z,22.90
2022-08-24T17:39:29.699Z,22.80
2022-08-24T17:40:52.363Z,22.80
2022-08-24T17:42:33.986Z,22.80
2022-08-24T17:43:57.238Z,22.70
2022-08-24T17:45:22.980Z,22.70
2022-08-24T17:46:47.598Z,22.60
2022-08-24T17:48:10.470Z,22.60
2022-08-24T17:49:35.645Z,22.60
2022-08-24T17:50:58.005Z,22.60
2022-08-24T17:52:20.087Z,22.50
2022-08-24T17:53:43.080Z,22.50
2022-08-24T17:55:07.689Z,22.40
2022-08-24T17:56:37.828Z,22.40
2022-08-24T17:58:03.242Z,22.30
2022-08-24T17:59:35.035Z,22.30
2022-08-24T18:00:57.531Z,22.20
2022-08-24T18:02:19.991Z,22.10
2022-08-24T18:03:42.217Z,22.00
2022-08-24T18:05:04.652Z,21.90
2022-08-24T18:06:28.667Z,21.90
2022-08-24T18:07:54.506Z,21.80
2022-08-24T18:09:38.045Z,21.80
2022-08-24T18:11:00.077Z,21.70
2022-08-24T18:12:24.463Z,21.70
2022-08-24T18:13:46.528Z,21.60
2022-08-24T18:15:09.291Z,21.60
2022-08-24T18:16:32.229Z,21.50
2022-08-24T18:17:55.205Z,21.50
2022-08-24T18:19:17.475Z,21.40
2022-08-24T18:20:44.057Z,21.40
2022-08-24T18:22:06.598Z,21.30
2022-08-24T18:23:28.742Z,21.30
2022-08-24T18:24:50.866Z,21.30
2022-08-24T18:26:27.727Z,21.20
2022-08-24T18:27:54.489Z,21.20
2022-08-24T18:29:21.329Z,21.20
2022-08-24T18:30:44.470Z,21.10
2022-08-24T18:32:06.827Z,21.10
2022-08-24T18:33:29.016Z,21.00
2022-08-24T18:34:51.046Z,21.00
2022-08-24T18:36:13.082Z,21.00
2022-08-24T18:37:35.174Z,21.00
2022-08-24T18:38:57.285Z,20.90
2022-08-24T18:40:20.524Z,20.90
2022-08-24T18:41:49.393Z,20.90
2022-08-24T18:43:15.369Z,20.90
2022-08-24T18:44:38.869Z,20.80
2022-08-24T18:46:01.476Z,20.80
2022-08-24T18:47:23.670Z,20.80
2022-08-24T18:48:45.766Z,20.80
2022-08-24T18:50:08.791Z,20.80
2022-08-24T18:51:36.983Z,20.70
2022-08-24T18:52:59.459Z,20.70
2022-08-24T18:54:29.326Z,20.70
2022-08-24T18:55:52.007Z,20.70
2022-08-24T18:57:15.415Z,20.60
2022-08-24T18:58:40.219Z,20.60
2022-08-24T19:00:03.289Z,20.60
2022-08-24T19:01:27.101Z,20.60
2022-08-24T19:02:50.339Z,20.60
2022-08-24T19:04:14.275Z,20.60
2022-08-24T19:05:36.520Z,20.60
2022-08-24T19:06:58.684Z,20.60
2022-08-24T19:08:21.097Z,20.50
2022-08-24T19:09:43.295Z,20.50
2022-08-24T19:11:07.070Z,20.50
2022-08-24T19:12:31.836Z,20.50
2022-08-24T19:13:53.928Z,20.50
2022-08-24T19:15:29.356Z,20.50
2022-08-24T19:17:00.028Z,20.50